KBCT

Boca Raton Airport

Boca Raton, Florida, USA
METAR KBCT 211258Z 25006KT 10SM CLR 30/24 A3001
Observed Flight Rules
Jul-21 @ 12:58 UTC (38 minutes ago) Visual Flight Rules
Wind Visibility Clouds
250° at 6 knots 10 miles
  • Clear skies
Temperatures Readings
Current 30°C / 86°F
Dewpoint 24°C / 75°F
Humidity 70%
Altimeter 30.01" Hg
Pressure 1016 hPa
Elevation 4
METAR KBCT 211258Z 25006KT 10SM CLR 30/24 A3001
Observed Flight Rules
Jul-21 @ 12:58 UTC
(38 minutes ago)
VFR
Wind Visibility
250° at 6 knots 10 miles
Clouds
  • Clear skies
Temperature Dewpoint
30°C / 86°F 24°C / 75°F
Humidity Altimeter Pressure
70% 30.01" Hg 1016 hPa